createdAt,value
2023-01-13T00:02:10.966Z,17.48
2023-01-13T00:07:12.472Z,26.55
2023-01-13T00:12:13.912Z,23.08
2023-01-13T00:17:15.343Z,19.67
2023-01-13T00:22:16.830Z,19.27
2023-01-13T00:27:18.319Z,19.88
2023-01-13T00:32:19.740Z,34.60
2023-01-13T00:37:21.366Z,32.28
2023-01-13T00:42:41.157Z,24.42
2023-01-13T00:47:42.590Z,25.50
2023-01-13T00:52:44.066Z,25.13
2023-01-13T00:57:45.471Z,23.83
2023-01-13T01:02:46.922Z,30.48
2023-01-13T01:07:48.564Z,30.15
2023-01-13T01:12:50.837Z,23.27
2023-01-13T01:17:52.329Z,28.85
2023-01-13T01:22:53.728Z,16.67
2023-01-13T01:27:55.308Z,19.70
2023-01-13T01:32:57.288Z,20.77
2023-01-13T01:37:58.727Z,18.77
2023-01-13T01:43:18.747Z,18.77
2023-01-13T01:48:20.379Z,15.70
2023-01-13T01:53:24.620Z,20.60
2023-01-13T01:58:31.167Z,18.50
2023-01-13T02:03:35.063Z,16.58
2023-01-13T02:08:39.078Z,12.63
2023-01-13T02:13:40.544Z,18.40
2023-01-13T02:19:22.456Z,27.90
2023-01-13T02:24:55.963Z,21.80
2023-01-13T02:30:27.448Z,30.13
2023-01-13T02:35:47.410Z,27.00
2023-01-13T02:41:23.207Z,20.52
2023-01-13T02:46:48.560Z,36.72
2023-01-13T02:51:52.643Z,28.92
2023-01-13T02:56:56.663Z,21.65
2023-01-13T03:01:59.548Z,34.25
2023-01-13T03:07:12.777Z,22.65
2023-01-13T03:12:34.470Z,28.02
2023-01-13T03:17:49.663Z,33.33
2023-01-13T03:23:03.168Z,25.73
2023-01-13T03:28:17.884Z,27.43
2023-01-13T03:33:29.484Z,21.23
2023-01-13T03:38:39.241Z,21.35
2023-01-13T03:44:24.888Z,29.92
2023-01-13T03:49:42.488Z,25.80
2023-01-13T03:54:51.945Z,30.20
2023-01-13T03:59:58.825Z,31.88
2023-01-13T04:05:03.530Z,29.48
2023-01-13T04:10:09.080Z,29.08
2023-01-13T04:15:12.442Z,31.98
2023-01-13T04:20:14.637Z,26.42
2023-01-13T04:25:16.311Z,29.85
2023-01-13T04:30:17.964Z,25.92
2023-01-13T04:35:19.548Z,35.38
2023-01-13T04:40:21.383Z,35.47
2023-01-13T04:45:22.873Z,22.13
2023-01-13T04:50:24.729Z,27.88
2023-01-13T04:55:26.317Z,33.22
2023-01-13T05:00:27.757Z,30.13
2023-01-13T05:05:30.392Z,29.38
2023-01-13T05:10:31.980Z,32.25
2023-01-13T05:15:52.456Z,38.63
2023-01-13T05:20:53.940Z,29.42
2023-01-13T05:25:55.535Z,33.22
2023-01-13T05:30:57.080Z,35.95
2023-01-13T05:36:02.294Z,39.10
2023-01-13T05:41:27.035Z,34.58
2023-01-13T05:46:28.542Z,37.53
2023-01-13T05:51:30.035Z,35.10
2023-01-13T05:56:31.551Z,30.13
2023-01-13T06:01:33.236Z,22.27
2023-01-13T06:06:34.688Z,26.70
2023-01-13T06:11:36.094Z,34.15
2023-01-13T06:16:37.725Z,23.92
2023-01-13T06:21:39.860Z,32.53
2023-01-13T06:26:41.547Z,22.45
2023-01-13T06:31:43.349Z,30.30
2023-01-13T06:36:50.426Z,31.90
2023-01-13T06:42:12.783Z,18.63
2023-01-13T06:47:14.472Z,25.98
2023-01-13T06:52:16.063Z,24.48
2023-01-13T06:57:17.592Z,22.60
2023-01-13T07:02:19.466Z,23.23
2023-01-13T07:07:20.987Z,21.10
2023-01-13T07:12:22.395Z,28.05
2023-01-13T07:17:26.788Z,23.65
2023-01-13T07:22:28.252Z,31.58
2023-01-13T07:27:29.739Z,23.60
2023-01-13T07:32:34.549Z,29.77
2023-01-13T07:37:37.602Z,24.95
2023-01-13T07:42:58.130Z,21.90
2023-01-13T07:47:59.670Z,25.23
2023-01-13T07:53:01.322Z,26.90
2023-01-13T07:58:02.788Z,25.05
2023-01-13T08:03:04.835Z,25.23
2023-01-13T08:08:06.330Z,25.27
2023-01-13T08:13:19.574Z,28.80
2023-01-13T08:18:22.232Z,28.05
2023-01-13T08:23:23.742Z,24.52
2023-01-13T08:28:25.413Z,32.50
2023-01-13T08:33:27.671Z,25.73
2023-01-13T08:38:29.129Z,29.08
2023-01-13T08:43:30.552Z,36.40
2023-01-13T08:48:32.063Z,23.58
2023-01-13T08:53:33.561Z,18.58
2023-01-13T08:58:35.029Z,24.50
2023-01-13T09:03:36.505Z,26.95
2023-01-13T09:08:38.000Z,27.85
2023-01-13T09:13:39.620Z,23.30
2023-01-13T09:18:41.027Z,28.23
2023-01-13T09:23:42.492Z,22.73
2023-01-13T09:28:43.906Z,21.50
2023-01-13T09:34:03.828Z,28.77
2023-01-13T09:39:05.874Z,19.98
2023-01-13T09:44:13.595Z,18.10
2023-01-13T09:49:28.016Z,17.45
2023-01-13T09:59:36.306Z,17.45
2023-01-13T10:04:37.886Z,22.83
2023-01-13T10:09:54.035Z,18.77
2023-01-13T10:14:56.097Z,18.30
2023-01-13T10:20:16.038Z,13.02
2023-01-13T10:25:30.252Z,16.13
2023-01-13T10:30:41.954Z,18.10
2023-01-13T10:35:59.361Z,19.63
2023-01-13T10:41:19.356Z,18.52
2023-01-13T10:46:20.964Z,16.48
2023-01-13T10:51:25.455Z,12.85
2023-01-13T10:56:30.704Z,14.77
2023-01-13T11:01:32.291Z,12.20
2023-01-13T11:06:35.315Z,10.50
2023-01-13T11:11:43.437Z,16.00
2023-01-13T11:16:53.460Z,16.92
2023-01-13T11:22:11.174Z,16.23
2023-01-13T11:27:21.004Z,17.42
2023-01-13T11:32:24.510Z,12.38
2023-01-13T11:37:33.378Z,18.17
2023-01-13T11:42:55.876Z,9.07
2023-01-13T11:48:00.189Z,10.35
2023-01-13T11:53:09.599Z,17.40
2023-01-13T11:58:50.330Z,9.70
2023-01-13T12:04:18.180Z,10.95
2023-01-13T12:09:42.489Z,14.05
2023-01-13T12:14:49.776Z,14.82
2023-01-13T12:19:51.448Z,14.05
2023-01-13T12:25:05.722Z,13.30
2023-01-13T12:30:22.710Z,10.63
2023-01-13T12:35:53.225Z,16.27
2023-01-13T12:41:24.507Z,9.75
2023-01-13T12:46:25.974Z,11.38
2023-01-13T12:51:37.859Z,13.45
2023-01-13T12:56:44.791Z,11.18
2023-01-13T13:01:48.714Z,12.40
2023-01-13T13:07:14.093Z,18.58
2023-01-13T13:12:49.443Z,12.43
2023-01-13T13:18:08.595Z,15.55
2023-01-13T13:23:39.073Z,15.43
2023-01-13T13:28:53.580Z,8.82
2023-01-13T13:34:25.740Z,16.17
2023-01-13T13:39:49.150Z,15.82
2023-01-13T13:45:09.949Z,14.97
2023-01-13T13:50:16.806Z,16.05
2023-01-13T13:55:21.860Z,13.90
2023-01-13T14:00:33.249Z,17.63
2023-01-13T14:05:36.165Z,17.58
2023-01-13T14:10:40.229Z,11.93
2023-01-13T14:15:42.010Z,17.88
2023-01-13T14:20:44.156Z,17.38
2023-01-13T14:25:51.083Z,18.90
2023-01-13T14:30:53.933Z,17.55
2023-01-13T14:36:04.493Z,19.13
2023-01-13T14:41:24.176Z,11.57
2023-01-13T14:46:39.732Z,23.20
2023-01-13T14:51:41.333Z,19.40
2023-01-13T14:56:51.032Z,11.60
2023-01-13T15:01:54.227Z,17.40
2023-01-13T15:06:57.700Z,26.20
2023-01-13T15:12:00.228Z,19.58
2023-01-13T15:17:02.824Z,14.65
2023-01-13T15:22:04.360Z,18.17
2023-01-13T15:27:19.687Z,20.88
2023-01-13T15:32:21.691Z,24.10
2023-01-13T15:37:25.480Z,21.98
2023-01-13T15:42:45.549Z,25.87
2023-01-13T15:47:48.187Z,23.02
2023-01-13T15:52:49.631Z,20.52
2023-01-13T15:57:51.157Z,20.15
2023-01-13T16:02:52.741Z,18.13
2023-01-13T16:07:54.289Z,16.23
2023-01-13T16:12:55.914Z,23.27
2023-01-13T16:18:00.285Z,25.10
2023-01-13T16:23:01.748Z,28.42
2023-01-13T16:28:03.501Z,22.33
2023-01-13T16:33:05.095Z,19.83
2023-01-13T16:38:06.577Z,26.45
2023-01-13T16:43:12.276Z,24.92
2023-01-13T16:48:20.284Z,31.45
2023-01-13T16:53:21.763Z,27.10
2023-01-13T16:58:23.397Z,23.63
2023-01-13T17:03:24.940Z,25.27
2023-01-13T17:08:26.478Z,19.73
2023-01-13T17:13:28.220Z,29.40
2023-01-13T17:18:29.953Z,24.13
2023-01-13T17:23:31.668Z,26.80
2023-01-13T17:28:33.222Z,20.58
2023-01-13T17:33:37.094Z,22.05
2023-01-13T17:38:38.611Z,26.75
2023-01-13T17:43:40.152Z,23.55
2023-01-13T17:48:41.585Z,27.02
2023-01-13T17:53:45.433Z,30.63
2023-01-13T17:58:46.900Z,29.25
2023-01-13T18:03:49.437Z,29.13
2023-01-13T18:08:51.154Z,30.08
2023-01-13T18:13:57.416Z,24.58
2023-01-13T18:19:18.435Z,30.80
2023-01-13T18:24:38.598Z,32.55
2023-01-13T18:29:40.085Z,32.65
2023-01-13T18:34:41.608Z,28.52
2023-01-13T18:39:43.057Z,18.40
2023-01-13T18:44:44.583Z,29.95
2023-01-13T18:49:46.221Z,22.23
2023-01-13T18:54:47.763Z,29.35
2023-01-13T18:59:49.402Z,31.15
2023-01-13T19:04:50.987Z,25.13
2023-01-13T19:09:55.600Z,20.00
2023-01-13T19:14:58.407Z,15.27
2023-01-13T19:20:00.610Z,28.30
2023-01-13T19:25:03.689Z,33.63
2023-01-13T19:30:06.010Z,30.20
2023-01-13T19:35:07.870Z,27.02
2023-01-13T19:40:10.359Z,31.38
2023-01-13T19:45:26.566Z,30.77
2023-01-13T19:50:28.126Z,25.23
2023-01-13T19:55:31.667Z,21.80
2023-01-13T20:00:33.329Z,29.45
2023-01-13T20:05:34.842Z,29.02
2023-01-13T20:10:37.601Z,29.92
2023-01-13T20:15:39.991Z,24.13
2023-01-13T20:20:41.538Z,34.40
2023-01-13T20:25:43.136Z,37.28
2023-01-13T20:30:44.688Z,26.33
2023-01-13T20:35:46.193Z,28.20
2023-01-13T20:40:47.615Z,24.27
2023-01-13T20:45:49.806Z,29.77
2023-01-13T20:50:57.753Z,23.23
2023-01-13T20:55:59.285Z,21.40
2023-01-13T21:01:01.352Z,38.83
2023-01-13T21:06:02.978Z,20.75
2023-01-13T21:11:06.072Z,26.10
2023-01-13T21:16:09.800Z,22.23
2023-01-13T21:21:11.578Z,24.27
2023-01-13T21:26:15.417Z,27.35
2023-01-13T21:31:18.101Z,20.63
2023-01-13T21:36:19.636Z,28.73
2023-01-13T21:41:41.181Z,24.08
2023-01-13T21:47:01.014Z,32.72
2023-01-13T21:52:02.447Z,29.05
2023-01-13T21:57:03.926Z,15.65
2023-01-13T22:02:25.581Z,9.48
2023-01-13T22:07:28.105Z,12.93
2023-01-13T22:12:30.048Z,15.85
2023-01-13T22:17:31.699Z,26.88
2023-01-13T22:22:36.742Z,18.42
2023-01-13T22:27:43.372Z,19.95
2023-01-13T22:32:45.743Z,21.02
2023-01-13T22:37:47.142Z,24.35
2023-01-13T22:42:48.610Z,21.52
2023-01-13T22:47:50.102Z,18.02
2023-01-13T22:52:51.565Z,24.55
2023-01-13T22:57:53.494Z,19.23
2023-01-13T23:02:54.905Z,22.35
2023-01-13T23:07:56.374Z,28.42
2023-01-13T23:12:57.834Z,33.10
2023-01-13T23:17:59.358Z,29.98
2023-01-13T23:23:00.920Z,26.35
2023-01-13T23:28:02.421Z,26.38
2023-01-13T23:33:03.938Z,23.98
2023-01-13T23:38:05.566Z,21.20
2023-01-13T23:43:07.097Z,24.48
2023-01-13T23:48:08.729Z,31.90
2023-01-13T23:53:10.461Z,30.52
2023-01-13T23:58:12.448Z,27.63
